sensor_id;sensor_type;location;lat;lon;timestamp;P1;durP1;ratioP1;P2;durP2;ratioP2
17842;SDS011;69286;48.222;16.332;2024-03-02T00:01:36;86.17;;;43.37;;
17842;SDS011;69286;48.222;16.332;2024-03-02T00:04:03;91.50;;;42.27;;
17842;SDS011;69286;48.222;16.332;2024-03-02T00:06:33;102.47;;;43.37;;
17842;SDS011;69286;48.222;16.332;2024-03-02T00:09:00;96.20;;;42.17;;
17842;SDS011;69286;48.222;16.332;2024-03-02T00:11:28;96.13;;;41.77;;
17842;SDS011;69286;48.222;16.332;2024-03-02T00:13:55;81.17;;;39.20;;
17842;SDS011;69286;48.222;16.332;2024-03-02T00:16:22;81.67;;;40.87;;
17842;SDS011;69286;48.222;16.332;2024-03-02T00:18:50;79.27;;;40.37;;
17842;SDS011;69286;48.222;16.332;2024-03-02T00:21:17;80.73;;;40.03;;
17842;SDS011;69286;48.222;16.332;2024-03-02T00:23:47;82.13;;;40.50;;
17842;SDS011;69286;48.222;16.332;2024-03-02T00:26:17;86.30;;;41.97;;
17842;SDS011;69286;48.222;16.332;2024-03-02T00:28:44;82.03;;;40.83;;
17842;SDS011;69286;48.222;16.332;2024-03-02T00:31:11;77.33;;;39.97;;
17842;SDS011;69286;48.222;16.332;2024-03-02T00:33:40;83.83;;;40.87;;
17842;SDS011;69286;48.222;16.332;2024-03-02T00:36:08;80.57;;;39.77;;
17842;SDS011;69286;48.222;16.332;2024-03-02T00:38:42;83.03;;;39.63;;
17842;SDS011;69286;48.222;16.332;2024-03-02T00:41:17;81.60;;;40.97;;
17842;SDS011;69286;48.222;16.332;2024-03-02T00:43:50;85.67;;;41.97;;
17842;SDS011;69286;48.222;16.332;2024-03-02T00:46:24;85.77;;;41.70;;
17842;SDS011;69286;48.222;16.332;2024-03-02T00:48:52;81.00;;;39.33;;
17842;SDS011;69286;48.222;16.332;2024-03-02T00:51:21;78.53;;;38.97;;
17842;SDS011;69286;48.222;16.332;2024-03-02T00:53:49;83.30;;;40.53;;
17842;SDS011;69286;48.222;16.332;2024-03-02T00:56:18;84.03;;;39.67;;
17842;SDS011;69286;48.222;16.332;2024-03-02T00:58:46;77.57;;;37.93;;
17842;SDS011;69286;48.222;16.332;2024-03-02T01:01:13;86.17;;;40.43;;
17842;SDS011;69286;48.222;16.332;2024-03-02T01:03:41;77.17;;;39.37;;
17842;SDS011;69286;48.222;16.332;2024-03-02T01:06:08;84.33;;;41.03;;
17842;SDS011;69286;48.222;16.332;2024-03-02T01:08:35;85.97;;;40.60;;
17842;SDS011;69286;48.222;16.332;2024-03-02T01:11:03;81.53;;;38.83;;
17842;SDS011;69286;48.222;16.332;2024-03-02T01:13:32;74.00;;;38.27;;
17842;SDS011;69286;48.222;16.332;2024-03-02T01:15:59;78.60;;;39.00;;
17842;SDS011;69286;48.222;16.332;2024-03-02T01:18:27;85.70;;;39.57;;
17842;SDS011;69286;48.222;16.332;2024-03-02T01:20:54;79.73;;;39.60;;
17842;SDS011;69286;48.222;16.332;2024-03-02T01:23:22;99.60;;;47.53;;
17842;SDS011;69286;48.222;16.332;2024-03-02T01:25:49;101.93;;;48.73;;
17842;SDS011;69286;48.222;16.332;2024-03-02T01:28:17;89.23;;;44.60;;
17842;SDS011;69286;48.222;16.332;2024-03-02T01:30:47;83.70;;;41.33;;
17842;SDS011;69286;48.222;16.332;2024-03-02T01:33:15;87.70;;;41.17;;
17842;SDS011;69286;48.222;16.332;2024-03-02T01:35:42;86.07;;;41.60;;
17842;SDS011;69286;48.222;16.332;2024-03-02T01:38:09;79.13;;;39.53;;
17842;SDS011;69286;48.222;16.332;2024-03-02T01:40:37;79.77;;;40.23;;
17842;SDS011;69286;48.222;16.332;2024-03-02T01:43:04;90.90;;;42.17;;
17842;SDS011;69286;48.222;16.332;2024-03-02T01:45:32;100.50;;;43.57;;
17842;SDS011;69286;48.222;16.332;2024-03-02T01:48:02;94.40;;;44.53;;
17842;SDS011;69286;48.222;16.332;2024-03-02T01:50:29;76.20;;;40.30;;
17842;SDS011;69286;48.222;16.332;2024-03-02T01:52:58;87.23;;;41.63;;
17842;SDS011;69286;48.222;16.332;2024-03-02T01:55:27;89.27;;;41.60;;
17842;SDS011;69286;48.222;16.332;2024-03-02T01:57:55;91.87;;;42.43;;
17842;SDS011;69286;48.222;16.332;2024-03-02T02:00:23;90.80;;;41.47;;
17842;SDS011;69286;48.222;16.332;2024-03-02T02:02:51;86.53;;;40.87;;
17842;SDS011;69286;48.222;16.332;2024-03-02T02:05:20;90.47;;;41.77;;
17842;SDS011;69286;48.222;16.332;2024-03-02T02:07:47;86.73;;;40.87;;
17842;SDS011;69286;48.222;16.332;2024-03-02T02:10:14;82.37;;;40.60;;
17842;SDS011;69286;48.222;16.332;2024-03-02T02:12:41;94.30;;;43.60;;
17842;SDS011;69286;48.222;16.332;2024-03-02T02:15:27;93.10;;;40.67;;
17842;SDS011;69286;48.222;16.332;2024-03-02T02:17:55;83.30;;;40.37;;
17842;SDS011;69286;48.222;16.332;2024-03-02T02:20:23;84.13;;;39.23;;
17842;SDS011;69286;48.222;16.332;2024-03-02T02:22:58;79.60;;;40.03;;
17842;SDS011;69286;48.222;16.332;2024-03-02T02:25:26;85.80;;;40.03;;
17842;SDS011;69286;48.222;16.332;2024-03-02T02:27:54;81.43;;;38.90;;
17842;SDS011;69286;48.222;16.332;2024-03-02T02:30:23;83.50;;;39.53;;
17842;SDS011;69286;48.222;16.332;2024-03-02T02:32:51;87.80;;;40.53;;
17842;SDS011;69286;48.222;16.332;2024-03-02T02:35:18;79.17;;;37.33;;
17842;SDS011;69286;48.222;16.332;2024-03-02T02:37:46;78.57;;;38.40;;
17842;SDS011;69286;48.222;16.332;2024-03-02T02:40:15;82.07;;;39.27;;
17842;SDS011;69286;48.222;16.332;2024-03-02T02:42:44;84.43;;;38.10;;
17842;SDS011;69286;48.222;16.332;2024-03-02T02:45:11;79.77;;;37.27;;
17842;SDS011;69286;48.222;16.332;2024-03-02T02:47:39;76.97;;;37.97;;
17842;SDS011;69286;48.222;16.332;2024-03-02T02:50:07;80.10;;;38.27;;
17842;SDS011;69286;48.222;16.332;2024-03-02T02:52:35;76.50;;;38.40;;
17842;SDS011;69286;48.222;16.332;2024-03-02T02:55:08;75.87;;;38.23;;
17842;SDS011;69286;48.222;16.332;2024-03-02T02:57:38;78.43;;;38.80;;
17842;SDS011;69286;48.222;16.332;2024-03-02T03:00:07;78.77;;;37.03;;
17842;SDS011;69286;48.222;16.332;2024-03-02T03:02:39;76.23;;;37.57;;
17842;SDS011;69286;48.222;16.332;2024-03-02T03:05:07;77.03;;;36.47;;
17842;SDS011;69286;48.222;16.332;2024-03-02T03:07:35;83.43;;;39.03;;
17842;SDS011;69286;48.222;16.332;2024-03-02T03:10:02;74.40;;;37.03;;
17842;SDS011;69286;48.222;16.332;2024-03-02T03:12:31;82.00;;;39.70;;
17842;SDS011;69286;48.222;16.332;2024-03-02T03:15:00;83.17;;;38.53;;
17842;SDS011;69286;48.222;16.332;2024-03-02T03:17:28;80.50;;;38.83;;
17842;SDS011;69286;48.222;16.332;2024-03-02T03:19:55;80.47;;;37.13;;
17842;SDS011;69286;48.222;16.332;2024-03-02T03:22:22;80.17;;;38.43;;
17842;SDS011;69286;48.222;16.332;2024-03-02T03:24:49;77.67;;;37.10;;
17842;SDS011;69286;48.222;16.332;2024-03-02T03:27:16;79.20;;;38.23;;
17842;SDS011;69286;48.222;16.332;2024-03-02T03:29:44;79.20;;;36.20;;
17842;SDS011;69286;48.222;16.332;2024-03-02T03:32:13;74.97;;;37.87;;
17842;SDS011;69286;48.222;16.332;2024-03-02T03:34:41;76.70;;;34.50;;
17842;SDS011;69286;48.222;16.332;2024-03-02T03:37:08;75.43;;;36.40;;
17842;SDS011;69286;48.222;16.332;2024-03-02T03:39:36;74.50;;;35.13;;
17842;SDS011;69286;48.222;16.332;2024-03-02T03:42:03;72.60;;;36.23;;
17842;SDS011;69286;48.222;16.332;2024-03-02T03:44:30;73.23;;;36.00;;
17842;SDS011;69286;48.222;16.332;2024-03-02T03:46:57;77.47;;;38.27;;
17842;SDS011;69286;48.222;16.332;2024-03-02T03:49:25;75.40;;;35.63;;
17842;SDS011;69286;48.222;16.332;2024-03-02T03:51:52;73.93;;;35.93;;
17842;SDS011;69286;48.222;16.332;2024-03-02T03:54:19;72.43;;;36.33;;
17842;SDS011;69286;48.222;16.332;2024-03-02T03:56:46;75.10;;;37.30;;
17842;SDS011;69286;48.222;16.332;2024-03-02T03:59:13;70.87;;;35.13;;
17842;SDS011;69286;48.222;16.332;2024-03-02T04:01:40;83.30;;;39.30;;
17842;SDS011;69286;48.222;16.332;2024-03-02T04:04:07;75.50;;;37.57;;
17842;SDS011;69286;48.222;16.332;2024-03-02T04:06:36;78.80;;;37.60;;
17842;SDS011;69286;48.222;16.332;2024-03-02T04:09:03;75.83;;;36.63;;
17842;SDS011;69286;48.222;16.332;2024-03-02T04:11:30;77.00;;;35.70;;
17842;SDS011;69286;48.222;16.332;2024-03-02T04:13:57;71.83;;;37.03;;
17842;SDS011;69286;48.222;16.332;2024-03-02T04:16:24;72.87;;;36.40;;
17842;SDS011;69286;48.222;16.332;2024-03-02T04:18:51;77.63;;;37.60;;
17842;SDS011;69286;48.222;16.332;2024-03-02T04:21:18;75.00;;;35.77;;
17842;SDS011;69286;48.222;16.332;2024-03-02T04:23:46;72.87;;;35.13;;
17842;SDS011;69286;48.222;16.332;2024-03-02T04:26:13;77.73;;;37.10;;
17842;SDS011;69286;48.222;16.332;2024-03-02T04:28:44;72.97;;;35.33;;
17842;SDS011;69286;48.222;16.332;2024-03-02T04:31:11;67.27;;;33.60;;
17842;SDS011;69286;48.222;16.332;2024-03-02T04:33:38;72.77;;;36.57;;
17842;SDS011;69286;48.222;16.332;2024-03-02T04:36:06;78.67;;;35.77;;
17842;SDS011;69286;48.222;16.332;2024-03-02T04:38:34;73.97;;;35.17;;
17842;SDS011;69286;48.222;16.332;2024-03-02T04:41:03;76.47;;;36.53;;
17842;SDS011;69286;48.222;16.332;2024-03-02T04:43:31;69.47;;;34.73;;
17842;SDS011;69286;48.222;16.332;2024-03-02T04:45:58;76.30;;;37.53;;
17842;SDS011;69286;48.222;16.332;2024-03-02T04:48:25;81.03;;;37.40;;
17842;SDS011;69286;48.222;16.332;2024-03-02T04:50:52;75.50;;;35.57;;
17842;SDS011;69286;48.222;16.332;2024-03-02T04:53:19;78.53;;;36.90;;
17842;SDS011;69286;48.222;16.332;2024-03-02T04:55:45;73.07;;;37.30;;
17842;SDS011;69286;48.222;16.332;2024-03-02T04:58:36;74.27;;;37.00;;
17842;SDS011;69286;48.222;16.332;2024-03-02T05:01:03;77.27;;;36.43;;
17842;SDS011;69286;48.222;16.332;2024-03-02T05:03:31;76.70;;;35.70;;
17842;SDS011;69286;48.222;16.332;2024-03-02T05:06:00;74.87;;;36.53;;
17842;SDS011;69286;48.222;16.332;2024-03-02T05:08:27;65.50;;;34.90;;
17842;SDS011;69286;48.222;16.332;2024-03-02T05:10:53;71.63;;;35.33;;
17842;SDS011;69286;48.222;16.332;2024-03-02T05:13:42;73.40;;;35.93;;
17842;SDS011;69286;48.222;16.332;2024-03-02T05:16:08;75.97;;;36.27;;
17842;SDS011;69286;48.222;16.332;2024-03-02T05:18:35;78.90;;;36.67;;
17842;SDS011;69286;48.222;16.332;2024-03-02T05:21:04;72.73;;;35.67;;
17842;SDS011;69286;48.222;16.332;2024-03-02T05:23:32;68.60;;;34.40;;
17842;SDS011;69286;48.222;16.332;2024-03-02T05:25:59;73.97;;;38.17;;
17842;SDS011;69286;48.222;16.332;2024-03-02T05:28:26;74.80;;;35.63;;
17842;SDS011;69286;48.222;16.332;2024-03-02T05:30:54;78.33;;;39.80;;
17842;SDS011;69286;48.222;16.332;2024-03-02T05:33:21;73.33;;;36.97;;
17842;SDS011;69286;48.222;16.332;2024-03-02T05:35:48;82.23;;;39.67;;
17842;SDS011;69286;48.222;16.332;2024-03-02T05:38:16;89.03;;;40.40;;
17842;SDS011;69286;48.222;16.332;2024-03-02T05:40:43;89.07;;;40.93;;
17842;SDS011;69286;48.222;16.332;2024-03-02T05:43:10;88.00;;;40.93;;
17842;SDS011;69286;48.222;16.332;2024-03-02T05:45:36;87.03;;;41.90;;
17842;SDS011;69286;48.222;16.332;2024-03-02T05:48:06;85.20;;;41.60;;
17842;SDS011;69286;48.222;16.332;2024-03-02T05:50:34;88.43;;;41.57;;
17842;SDS011;69286;48.222;16.332;2024-03-02T05:53:01;81.10;;;39.03;;
17842;SDS011;69286;48.222;16.332;2024-03-02T05:55:28;90.77;;;39.90;;
17842;SDS011;69286;48.222;16.332;2024-03-02T05:57:56;82.53;;;39.23;;
17842;SDS011;69286;48.222;16.332;2024-03-02T06:00:40;86.27;;;37.23;;
17842;SDS011;69286;48.222;16.332;2024-03-02T06:03:09;78.27;;;36.93;;
17842;SDS011;69286;48.222;16.332;2024-03-02T06:05:36;85.60;;;37.40;;
17842;SDS011;69286;48.222;16.332;2024-03-02T06:08:03;80.80;;;36.67;;
17842;SDS011;69286;48.222;16.332;2024-03-02T06:10:31;77.57;;;35.50;;
17842;SDS011;69286;48.222;16.332;2024-03-02T06:12:58;87.70;;;38.70;;
17842;SDS011;69286;48.222;16.332;2024-03-02T06:15:25;90.13;;;38.10;;
17842;SDS011;69286;48.222;16.332;2024-03-02T06:17:52;76.67;;;35.33;;
17842;SDS011;69286;48.222;16.332;2024-03-02T06:20:21;81.70;;;37.97;;
17842;SDS011;69286;48.222;16.332;2024-03-02T06:22:47;115.93;;;40.70;;
17842;SDS011;69286;48.222;16.332;2024-03-02T06:25:14;80.57;;;36.87;;
17842;SDS011;69286;48.222;16.332;2024-03-02T06:27:42;72.93;;;35.73;;
17842;SDS011;69286;48.222;16.332;2024-03-02T06:30:09;79.17;;;35.77;;
17842;SDS011;69286;48.222;16.332;2024-03-02T06:32:37;76.83;;;36.53;;
17842;SDS011;69286;48.222;16.332;2024-03-02T06:35:04;78.10;;;36.10;;
17842;SDS011;69286;48.222;16.332;2024-03-02T06:37:36;70.87;;;34.17;;
17842;SDS011;69286;48.222;16.332;2024-03-02T06:40:05;71.60;;;35.63;;
17842;SDS011;69286;48.222;16.332;2024-03-02T06:42:33;70.27;;;33.67;;
17842;SDS011;69286;48.222;16.332;2024-03-02T06:45:01;68.73;;;33.33;;
17842;SDS011;69286;48.222;16.332;2024-03-02T06:47:29;67.60;;;32.73;;
17842;SDS011;69286;48.222;16.332;2024-03-02T06:49:56;63.47;;;31.63;;
17842;SDS011;69286;48.222;16.332;2024-03-02T06:52:23;65.93;;;32.07;;
17842;SDS011;69286;48.222;16.332;2024-03-02T06:54:52;66.43;;;32.20;;
17842;SDS011;69286;48.222;16.332;2024-03-02T06:57:36;60.20;;;30.87;;
17842;SDS011;69286;48.222;16.332;2024-03-02T07:00:04;69.80;;;32.50;;
17842;SDS011;69286;48.222;16.332;2024-03-02T07:02:33;66.30;;;32.40;;
17842;SDS011;69286;48.222;16.332;2024-03-02T07:05:01;61.97;;;30.63;;
17842;SDS011;69286;48.222;16.332;2024-03-02T07:07:29;66.40;;;32.83;;
17842;SDS011;69286;48.222;16.332;2024-03-02T07:09:58;68.60;;;33.23;;
17842;SDS011;69286;48.222;16.332;2024-03-02T07:12:25;69.00;;;32.87;;
17842;SDS011;69286;48.222;16.332;2024-03-02T07:14:52;64.50;;;32.37;;
17842;SDS011;69286;48.222;16.332;2024-03-02T07:17:36;60.33;;;31.47;;
17842;SDS011;69286;48.222;16.332;2024-03-02T07:20:04;60.50;;;32.00;;
17842;SDS011;69286;48.222;16.332;2024-03-02T07:22:32;59.93;;;31.73;;
17842;SDS011;69286;48.222;16.332;2024-03-02T07:25:00;58.03;;;30.53;;
17842;SDS011;69286;48.222;16.332;2024-03-02T07:27:28;62.33;;;32.93;;
17842;SDS011;69286;48.222;16.332;2024-03-02T07:29:56;71.23;;;33.20;;
17842;SDS011;69286;48.222;16.332;2024-03-02T07:32:25;70.60;;;32.30;;
17842;SDS011;69286;48.222;16.332;2024-03-02T07:34:52;74.30;;;34.07;;
17842;SDS011;69286;48.222;16.332;2024-03-02T07:37:20;74.07;;;36.50;;
17842;SDS011;69286;48.222;16.332;2024-03-02T07:39:47;65.93;;;34.73;;
17842;SDS011;69286;48.222;16.332;2024-03-02T07:42:16;81.93;;;36.83;;
17842;SDS011;69286;48.222;16.332;2024-03-02T07:44:43;78.20;;;37.83;;
17842;SDS011;69286;48.222;16.332;2024-03-02T07:47:13;75.63;;;36.80;;
17842;SDS011;69286;48.222;16.332;2024-03-02T07:49:40;73.37;;;35.60;;
17842;SDS011;69286;48.222;16.332;2024-03-02T07:52:07;74.87;;;35.30;;
17842;SDS011;69286;48.222;16.332;2024-03-02T07:54:34;71.03;;;34.70;;
17842;SDS011;69286;48.222;16.332;2024-03-02T07:57:01;66.50;;;33.43;;
17842;SDS011;69286;48.222;16.332;2024-03-02T07:59:30;65.40;;;32.07;;
17842;SDS011;69286;48.222;16.332;2024-03-02T08:01:57;60.33;;;31.40;;
17842;SDS011;69286;48.222;16.332;2024-03-02T08:04:25;63.23;;;31.93;;
17842;SDS011;69286;48.222;16.332;2024-03-02T08:06:53;66.77;;;33.47;;
17842;SDS011;69286;48.222;16.332;2024-03-02T08:09:20;64.17;;;31.87;;
17842;SDS011;69286;48.222;16.332;2024-03-02T08:11:47;58.17;;;30.10;;
17842;SDS011;69286;48.222;16.332;2024-03-02T08:14:14;56.13;;;30.80;;
17842;SDS011;69286;48.222;16.332;2024-03-02T08:16:43;56.03;;;29.60;;
17842;SDS011;69286;48.222;16.332;2024-03-02T08:19:10;59.90;;;30.87;;
17842;SDS011;69286;48.222;16.332;2024-03-02T08:21:38;59.00;;;30.60;;
17842;SDS011;69286;48.222;16.332;2024-03-02T08:24:05;61.03;;;30.73;;
17842;SDS011;69286;48.222;16.332;2024-03-02T08:26:33;57.20;;;29.43;;
17842;SDS011;69286;48.222;16.332;2024-03-02T08:29:00;54.40;;;29.60;;
17842;SDS011;69286;48.222;16.332;2024-03-02T08:31:28;56.00;;;29.27;;
17842;SDS011;69286;48.222;16.332;2024-03-02T08:33:57;51.10;;;29.37;;
17842;SDS011;69286;48.222;16.332;2024-03-02T08:36:24;55.70;;;29.13;;
17842;SDS011;69286;48.222;16.332;2024-03-02T08:38:51;56.83;;;29.97;;
17842;SDS011;69286;48.222;16.332;2024-03-02T08:41:18;54.70;;;29.67;;
17842;SDS011;69286;48.222;16.332;2024-03-02T08:43:45;57.47;;;29.57;;
17842;SDS011;69286;48.222;16.332;2024-03-02T08:46:13;55.43;;;29.37;;
17842;SDS011;69286;48.222;16.332;2024-03-02T08:48:40;54.97;;;29.20;;
17842;SDS011;69286;48.222;16.332;2024-03-02T08:51:08;53.03;;;28.23;;
17842;SDS011;69286;48.222;16.332;2024-03-02T08:53:35;53.70;;;30.20;;
17842;SDS011;69286;48.222;16.332;2024-03-02T08:56:03;61.73;;;30.93;;
17842;SDS011;69286;48.222;16.332;2024-03-02T08:58:31;52.00;;;28.13;;
17842;SDS011;69286;48.222;16.332;2024-03-02T09:00:58;54.20;;;29.20;;
17842;SDS011;69286;48.222;16.332;2024-03-02T09:03:25;53.60;;;28.60;;
17842;SDS011;69286;48.222;16.332;2024-03-02T09:05:52;54.40;;;28.40;;
17842;SDS011;69286;48.222;16.332;2024-03-02T09:08:21;60.33;;;31.17;;
17842;SDS011;69286;48.222;16.332;2024-03-02T09:10:48;57.43;;;30.83;;
17842;SDS011;69286;48.222;16.332;2024-03-02T09:13:16;54.87;;;29.70;;
17842;SDS011;69286;48.222;16.332;2024-03-02T09:15:43;57.37;;;29.67;;
17842;SDS011;69286;48.222;16.332;2024-03-02T09:18:10;65.07;;;32.23;;
17842;SDS011;69286;48.222;16.332;2024-03-02T09:20:37;59.97;;;30.10;;
17842;SDS011;69286;48.222;16.332;2024-03-02T09:23:04;66.00;;;31.90;;
17842;SDS011;69286;48.222;16.332;2024-03-02T09:25:32;66.23;;;33.93;;
17842;SDS011;69286;48.222;16.332;2024-03-02T09:27:59;71.40;;;34.90;;
17842;SDS011;69286;48.222;16.332;2024-03-02T09:30:28;70.27;;;34.47;;
17842;SDS011;69286;48.222;16.332;2024-03-02T09:32:55;72.27;;;32.80;;
17842;SDS011;69286;48.222;16.332;2024-03-02T09:35:22;71.77;;;34.13;;
17842;SDS011;69286;48.222;16.332;2024-03-02T09:37:49;68.17;;;33.27;;
17842;SDS011;69286;48.222;16.332;2024-03-02T09:40:16;66.90;;;32.83;;
17842;SDS011;69286;48.222;16.332;2024-03-02T09:42:45;68.83;;;34.87;;
17842;SDS011;69286;48.222;16.332;2024-03-02T09:45:17;73.13;;;35.60;;
17842;SDS011;69286;48.222;16.332;2024-03-02T09:47:48;74.33;;;37.00;;
17842;SDS011;69286;48.222;16.332;2024-03-02T09:50:16;70.07;;;34.73;;
17842;SDS011;69286;48.222;16.332;2024-03-02T09:52:43;69.57;;;34.53;;
17842;SDS011;69286;48.222;16.332;2024-03-02T09:55:10;71.53;;;35.33;;
17842;SDS011;69286;48.222;16.332;2024-03-02T09:57:38;73.20;;;35.57;;
17842;SDS011;69286;48.222;16.332;2024-03-02T10:00:09;81.60;;;38.73;;
17842;SDS011;69286;48.222;16.332;2024-03-02T10:02:39;77.30;;;39.40;;
17842;SDS011;69286;48.222;16.332;2024-03-02T10:05:07;81.53;;;40.63;;
17842;SDS011;69286;48.222;16.332;2024-03-02T10:07:34;83.83;;;41.80;;
17842;SDS011;69286;48.222;16.332;2024-03-02T10:10:12;75.23;;;40.07;;
17842;SDS011;69286;48.222;16.332;2024-03-02T10:12:39;79.63;;;39.43;;
17842;SDS011;69286;48.222;16.332;2024-03-02T10:15:07;78.13;;;39.00;;
17842;SDS011;69286;48.222;16.332;2024-03-02T10:17:35;71.70;;;37.33;;
17842;SDS011;69286;48.222;16.332;2024-03-02T10:20:22;75.83;;;38.73;;
17842;SDS011;69286;48.222;16.332;2024-03-02T10:22:49;73.97;;;36.80;;
17842;SDS011;69286;48.222;16.332;2024-03-02T10:25:28;78.77;;;39.40;;
17842;SDS011;69286;48.222;16.332;2024-03-02T10:27:57;81.17;;;40.80;;
17842;SDS011;69286;48.222;16.332;2024-03-02T10:30:26;80.37;;;41.20;;
17842;SDS011;69286;48.222;16.332;2024-03-02T10:32:54;84.77;;;41.73;;
17842;SDS011;69286;48.222;16.332;2024-03-02T10:35:22;78.80;;;39.30;;
17842;SDS011;69286;48.222;16.332;2024-03-02T10:37:50;79.23;;;41.43;;
17842;SDS011;69286;48.222;16.332;2024-03-02T10:40:20;83.23;;;43.70;;
17842;SDS011;69286;48.222;16.332;2024-03-02T10:42:48;81.30;;;40.47;;
17842;SDS011;69286;48.222;16.332;2024-03-02T10:45:17;79.93;;;42.43;;
17842;SDS011;69286;48.222;16.332;2024-03-02T10:47:48;80.20;;;41.33;;
17842;SDS011;69286;48.222;16.332;2024-03-02T10:50:16;78.20;;;40.83;;
17842;SDS011;69286;48.222;16.332;2024-03-02T10:52:44;81.53;;;41.53;;
17842;SDS011;69286;48.222;16.332;2024-03-02T10:55:11;78.03;;;41.23;;
17842;SDS011;69286;48.222;16.332;2024-03-02T10:57:42;79.70;;;40.40;;
17842;SDS011;69286;48.222;16.332;2024-03-02T11:00:17;87.57;;;41.70;;
17842;SDS011;69286;48.222;16.332;2024-03-02T11:02:51;79.10;;;39.10;;
17842;SDS011;69286;48.222;16.332;2024-03-02T11:05:26;79.10;;;39.70;;
17842;SDS011;69286;48.222;16.332;2024-03-02T11:07:56;75.17;;;39.13;;
17842;SDS011;69286;48.222;16.332;2024-03-02T11:10:34;74.60;;;38.27;;
17842;SDS011;69286;48.222;16.332;2024-03-02T11:13:02;76.13;;;38.50;;
17842;SDS011;69286;48.222;16.332;2024-03-02T11:15:34;79.27;;;40.77;;
17842;SDS011;69286;48.222;16.332;2024-03-02T11:18:04;81.57;;;40.73;;
17842;SDS011;69286;48.222;16.332;2024-03-02T11:20:34;80.50;;;40.60;;
17842;SDS011;69286;48.222;16.332;2024-03-02T11:23:05;76.47;;;38.83;;
17842;SDS011;69286;48.222;16.332;2024-03-02T11:25:33;74.77;;;38.17;;
17842;SDS011;69286;48.222;16.332;2024-03-02T11:28:03;71.60;;;37.37;;
17842;SDS011;69286;48.222;16.332;2024-03-02T11:30:50;68.77;;;37.67;;
17842;SDS011;69286;48.222;16.332;2024-03-02T11:33:26;72.70;;;38.40;;
17842;SDS011;69286;48.222;16.332;2024-03-02T11:35:56;74.20;;;37.67;;
17842;SDS011;69286;48.222;16.332;2024-03-02T11:38:30;67.57;;;36.40;;
17842;SDS011;69286;48.222;16.332;2024-03-02T11:40:59;73.90;;;38.43;;
17842;SDS011;69286;48.222;16.332;2024-03-02T11:43:27;67.27;;;36.50;;
17842;SDS011;69286;48.222;16.332;2024-03-02T11:45:58;71.87;;;37.80;;
17842;SDS011;69286;48.222;16.332;2024-03-02T11:48:27;71.53;;;37.00;;
17842;SDS011;69286;48.222;16.332;2024-03-02T11:50:57;80.97;;;38.50;;
17842;SDS011;69286;48.222;16.332;2024-03-02T11:53:28;75.17;;;38.60;;
17842;SDS011;69286;48.222;16.332;2024-03-02T11:55:57;73.57;;;38.63;;
17842;SDS011;69286;48.222;16.332;2024-03-02T11:58:24;75.87;;;39.10;;
17842;SDS011;69286;48.222;16.332;2024-03-02T12:00:53;80.40;;;40.17;;
17842;SDS011;69286;48.222;16.332;2024-03-02T12:03:21;74.00;;;39.33;;
17842;SDS011;69286;48.222;16.332;2024-03-02T12:05:52;72.23;;;39.00;;
17842;SDS011;69286;48.222;16.332;2024-03-02T12:08:19;83.80;;;42.07;;
17842;SDS011;69286;48.222;16.332;2024-03-02T12:10:55;76.60;;;41.67;;
17842;SDS011;69286;48.222;16.332;2024-03-02T12:13:23;76.70;;;43.17;;
17842;SDS011;69286;48.222;16.332;2024-03-02T12:15:52;82.07;;;43.00;;
17842;SDS011;69286;48.222;16.332;2024-03-02T12:18:21;78.87;;;43.07;;
17842;SDS011;69286;48.222;16.332;2024-03-02T12:20:48;82.07;;;44.30;;
17842;SDS011;69286;48.222;16.332;2024-03-02T12:23:19;81.33;;;42.93;;
17842;SDS011;69286;48.222;16.332;2024-03-02T12:25:46;80.33;;;43.87;;
17842;SDS011;69286;48.222;16.332;2024-03-02T12:28:13;84.93;;;43.43;;
17842;SDS011;69286;48.222;16.332;2024-03-02T12:30:41;81.80;;;44.13;;
17842;SDS011;69286;48.222;16.332;2024-03-02T12:33:08;82.87;;;43.80;;
17842;SDS011;69286;48.222;16.332;2024-03-02T12:35:38;83.93;;;44.90;;
17842;SDS011;69286;48.222;16.332;2024-03-02T12:38:06;81.50;;;45.30;;
17842;SDS011;69286;48.222;16.332;2024-03-02T12:40:35;77.70;;;42.67;;
17842;SDS011;69286;48.222;16.332;2024-03-02T12:43:02;82.43;;;42.40;;
17842;SDS011;69286;48.222;16.332;2024-03-02T12:45:29;79.00;;;43.60;;
17842;SDS011;69286;48.222;16.332;2024-03-02T12:47:56;77.17;;;43.53;;
17842;SDS011;69286;48.222;16.332;2024-03-02T12:50:23;80.37;;;42.57;;
17842;SDS011;69286;48.222;16.332;2024-03-02T12:52:52;72.63;;;39.57;;
17842;SDS011;69286;48.222;16.332;2024-03-02T12:55:20;77.03;;;40.17;;
17842;SDS011;69286;48.222;16.332;2024-03-02T12:57:49;68.90;;;38.77;;
17842;SDS011;69286;48.222;16.332;2024-03-02T13:00:18;68.93;;;40.03;;
17842;SDS011;69286;48.222;16.332;2024-03-02T13:02:45;74.77;;;39.87;;
17842;SDS011;69286;48.222;16.332;2024-03-02T13:05:13;72.70;;;40.90;;
17842;SDS011;69286;48.222;16.332;2024-03-02T13:07:40;64.17;;;38.10;;
17842;SDS011;69286;48.222;16.332;2024-03-02T13:10:08;72.97;;;39.30;;
17842;SDS011;69286;48.222;16.332;2024-03-02T13:12:35;72.83;;;39.80;;
17842;SDS011;69286;48.222;16.332;2024-03-02T13:15:04;72.43;;;38.47;;
17842;SDS011;69286;48.222;16.332;2024-03-02T13:17:33;69.33;;;36.93;;
17842;SDS011;69286;48.222;16.332;2024-03-02T13:20:01;65.90;;;36.93;;
17842;SDS011;69286;48.222;16.332;2024-03-02T13:22:29;67.03;;;37.50;;
17842;SDS011;69286;48.222;16.332;2024-03-02T13:24:56;71.43;;;36.47;;
17842;SDS011;69286;48.222;16.332;2024-03-02T13:27:25;64.97;;;38.53;;
17842;SDS011;69286;48.222;16.332;2024-03-02T13:29:52;64.77;;;36.97;;
17842;SDS011;69286;48.222;16.332;2024-03-02T13:32:22;58.53;;;35.67;;
17842;SDS011;69286;48.222;16.332;2024-03-02T13:34:50;64.17;;;35.50;;
17842;SDS011;69286;48.222;16.332;2024-03-02T13:37:17;68.20;;;36.33;;
17842;SDS011;69286;48.222;16.332;2024-03-02T13:39:44;62.37;;;35.20;;
17842;SDS011;69286;48.222;16.332;2024-03-02T13:42:12;67.47;;;34.83;;
17842;SDS011;69286;48.222;16.332;2024-03-02T13:44:40;62.80;;;35.03;;
17842;SDS011;69286;48.222;16.332;2024-03-02T13:47:10;62.30;;;33.90;;
17842;SDS011;69286;48.222;16.332;2024-03-02T13:49:39;58.67;;;31.70;;
17842;SDS011;69286;48.222;16.332;2024-03-02T13:52:09;59.97;;;33.13;;
17842;SDS011;69286;48.222;16.332;2024-03-02T13:54:38;62.30;;;31.47;;
17842;SDS011;69286;48.222;16.332;2024-03-02T13:57:05;58.40;;;32.13;;
17842;SDS011;69286;48.222;16.332;2024-03-02T13:59:33;56.47;;;31.50;;
17842;SDS011;69286;48.222;16.332;2024-03-02T14:02:01;56.27;;;31.70;;
17842;SDS011;69286;48.222;16.332;2024-03-02T14:04:29;53.97;;;30.33;;
17842;SDS011;69286;48.222;16.332;2024-03-02T14:06:58;60.87;;;32.77;;
17842;SDS011;69286;48.222;16.332;2024-03-02T14:09:25;57.10;;;32.50;;
17842;SDS011;69286;48.222;16.332;2024-03-02T14:11:52;63.00;;;34.00;;
17842;SDS011;69286;48.222;16.332;2024-03-02T14:14:20;62.40;;;33.37;;
17842;SDS011;69286;48.222;16.332;2024-03-02T14:16:47;67.23;;;35.40;;